Time;durP1;ratioP1;P1;durP2;ratioP2;P2;SDS_P1;SDS_P2;PMS_P1;PMS_P2;Temp;Humidity;BMP_temperature;BMP_pressure;BME280_temperature;BME280_humidity;BME280_pressure;Samples;Min_cycle;Max_cycle;Signal;HPM_P1;HPM_P2
2023/03/07 00:00:41;;;;;;;3.15;1.67;;;;;;;;;;5112912;28;20074;-52
2023/03/07 00:03:06;;;;;;;5.90;2.55;;;;;;;;;;5111178;28;20054;-52
2023/03/07 00:05:32;;;;;;;2.75;2.25;;;;;;;;;;5112837;28;20028;-52
2023/03/07 00:07:58;;;;;;;2.35;1.90;;;;;;;;;;5112740;28;20047;-52
2023/03/07 00:10:23;;;;;;;4.68;1.48;;;;;;;;;;5112720;28;20529;-52
2023/03/07 00:12:49;;;;;;;1.95;1.85;;;;;;;;;;5112594;28;20024;-52
2023/03/07 00:15:15;;;;;;;4.40;2.90;;;;;;;;;;5112323;28;20042;-52
2023/03/07 00:17:40;;;;;;;1.80;1.60;;;;;;;;;;5112647;28;20171;-52
2023/03/07 00:20:06;;;;;;;1.90;1.77;;;;;;;;;;5112267;28;20095;-52
2023/03/07 00:22:32;;;;;;;3.55;2.60;;;;;;;;;;5112277;28;20058;-52
2023/03/07 00:24:58;;;;;;;3.83;1.98;;;;;;;;;;5112184;28;20373;-51
2023/03/07 00:27:23;;;;;;;3.63;2.20;;;;;;;;;;5112452;28;20015;-51
2023/03/07 00:29:49;;;;;;;2.92;2.22;;;;;;;;;;5110780;28;20061;-51
2023/03/07 00:32:14;;;;;;;5.72;2.45;;;;;;;;;;5112027;28;20032;-51
2023/03/07 00:34:40;;;;;;;3.22;2.20;;;;;;;;;;5111547;28;20031;-51
2023/03/07 00:37:05;;;;;;;2.65;2.08;;;;;;;;;;5110737;28;20030;-51
2023/03/07 00:39:30;;;;;;;19.38;2.63;;;;;;;;;;5112023;28;20035;-51
2023/03/07 00:41:56;;;;;;;3.47;1.92;;;;;;;;;;5110701;28;20050;-51
2023/03/07 00:44:21;;;;;;;4.65;2.58;;;;;;;;;;5110615;28;20038;-51
2023/03/07 00:46:46;;;;;;;3.83;1.85;;;;;;;;;;5111014;28;20084;-51
2023/03/07 00:49:12;;;;;;;2.97;2.38;;;;;;;;;;5111897;28;20111;-51
2023/03/07 00:51:37;;;;;;;2.03;1.40;;;;;;;;;;5111880;28;20039;-51
2023/03/07 00:54:03;;;;;;;4.85;1.90;;;;;;;;;;5110470;28;20034;-51
2023/03/07 00:56:29;;;;;;;4.43;2.25;;;;;;;;;;5111943;28;20039;-51
2023/03/07 00:58:54;;;;;;;2.08;1.90;;;;;;;;;;5111795;28;20030;-51
2023/03/07 01:01:21;;;;;;;3.10;1.83;;;;;;;;;;5110571;28;20666;-51
2023/03/07 01:03:48;;;;;;;2.88;2.08;;;;;;;;;;5110425;28;20563;-51
2023/03/07 01:06:15;;;;;;;3.95;1.67;;;;;;;;;;5110415;28;20075;-51
2023/03/07 01:08:41;;;;;;;1.98;1.48;;;;;;;;;;5110540;28;20028;-51
2023/03/07 01:11:07;;;;;;;3.03;1.60;;;;;;;;;;5110299;28;20076;-51
2023/03/07 01:13:33;;;;;;;3.95;2.28;;;;;;;;;;5110732;28;20400;-51
2023/03/07 01:16:06;;;;;;;8.15;1.98;;;;;;;;;;5110268;28;20019;-51
2023/03/07 01:18:31;;;;;;;4.30;1.83;;;;;;;;;;5093509;28;20066;-51
2023/03/07 01:20:57;;;;;;;5.38;2.20;;;;;;;;;;5093444;28;20289;-51
2023/03/07 01:23:22;;;;;;;2.83;2.00;;;;;;;;;;5110244;28;20192;-51
2023/03/07 01:25:48;;;;;;;3.80;2.45;;;;;;;;;;5111648;28;20056;-51
2023/03/07 01:28:14;;;;;;;4.35;2.15;;;;;;;;;;5111316;28;20063;-52
2023/03/07 01:30:39;;;;;;;4.22;3.40;;;;;;;;;;5111599;28;20031;-51
2023/03/07 01:33:05;;;;;;;3.85;2.80;;;;;;;;;;5110108;28;20036;-51
2023/03/07 01:35:35;;;;;;;3.83;1.45;;;;;;;;;;5111536;28;20027;-51
2023/03/07 01:38:00;;;;;;;2.13;1.83;;;;;;;;;;5111659;28;20385;-51
2023/03/07 01:40:26;;;;;;;3.55;2.00;;;;;;;;;;5111452;28;20012;-51
2023/03/07 01:42:52;;;;;;;4.20;2.03;;;;;;;;;;5109983;28;20031;-51
2023/03/07 01:45:34;;;;;;;2.63;1.35;;;;;;;;;;5112397;28;20047;-51
2023/03/07 01:48:01;;;;;;;2.17;1.60;;;;;;;;;;5113926;28;20596;-51
2023/03/07 01:50:27;;;;;;;4.82;2.45;;;;;;;;;;5113846;28;20020;-52
2023/03/07 01:52:54;;;;;;;3.78;2.47;;;;;;;;;;5113881;28;20506;-52
2023/03/07 01:55:21;;;;;;;3.10;2.55;;;;;;;;;;5113821;28;20068;-51
2023/03/07 01:57:51;;;;;;;3.33;2.33;;;;;;;;;;5113739;28;20032;-51
2023/03/07 02:00:24;;;;;;;4.80;3.22;;;;;;;;;;5113698;28;20047;-51
2023/03/07 02:02:56;;;;;;;3.50;2.08;;;;;;;;;;5096571;28;20473;-51
2023/03/07 02:05:26;;;;;;;4.53;2.33;;;;;;;;;;5113580;28;20418;-51
2023/03/07 02:07:53;;;;;;;2.63;1.85;;;;;;;;;;5114819;28;20038;-52
2023/03/07 02:10:22;;;;;;;3.88;2.22;;;;;;;;;;5114776;27;20504;-52
2023/03/07 02:12:47;;;;;;;1.85;1.33;;;;;;;;;;5115052;28;20028;-52
2023/03/07 02:15:13;;;;;;;2.53;1.25;;;;;;;;;;5113307;28;20019;-51
2023/03/07 02:17:40;;;;;;;3.55;1.23;;;;;;;;;;5114756;28;20075;-51
2023/03/07 02:20:07;;;;;;;2.60;1.75;;;;;;;;;;5113259;28;20043;-52
2023/03/07 02:22:32;;;;;;;1.80;1.40;;;;;;;;;;5113287;28;20428;-51
2023/03/07 02:25:01;;;;;;;1.50;1.10;;;;;;;;;;5114565;28;20482;-51
2023/03/07 02:27:30;;;;;;;1.92;1.58;;;;;;;;;;5113191;28;20296;-52
2023/03/07 02:29:56;;;;;;;2.47;1.30;;;;;;;;;;5112975;28;20092;-51
2023/03/07 02:32:21;;;;;;;3.80;1.60;;;;;;;;;;5112915;28;20519;-51
2023/03/07 02:34:47;;;;;;;1.40;1.30;;;;;;;;;;5113128;28;20031;-52
2023/03/07 02:37:19;;;;;;;1.85;1.45;;;;;;;;;;5112923;28;20027;-52
2023/03/07 02:39:46;;;;;;;4.68;1.88;;;;;;;;;;5112933;28;20389;-52
2023/03/07 02:42:14;;;;;;;2.17;1.58;;;;;;;;;;5112778;28;20023;-52
2023/03/07 02:44:54;;;;;;;1.15;1.00;;;;;;;;;;5112893;28;20497;-52
2023/03/07 02:47:20;;;;;;;1.63;1.45;;;;;;;;;;5112757;28;20034;-52
2023/03/07 02:49:45;;;;;;;1.40;1.30;;;;;;;;;;5114134;28;20019;-52
2023/03/07 02:52:10;;;;;;;3.95;1.52;;;;;;;;;;5114112;27;20058;-52
2023/03/07 02:54:36;;;;;;;2.30;1.10;;;;;;;;;;5113976;28;20346;-52
2023/03/07 02:57:03;;;;;;;2.25;1.80;;;;;;;;;;5113619;28;20046;-52
2023/03/07 02:59:29;;;;;;;2.50;1.52;;;;;;;;;;5113940;28;20529;-52
2023/03/07 03:01:54;;;;;;;2.00;1.73;;;;;;;;;;5112833;28;20103;-52
2023/03/07 03:04:20;;;;;;;1.40;1.30;;;;;;;;;;5113774;28;20046;-52
2023/03/07 03:06:45;;;;;;;3.47;1.77;;;;;;;;;;5112583;28;20055;-52
2023/03/07 03:09:10;;;;;;;3.33;2.33;;;;;;;;;;5113695;28;20512;-52
2023/03/07 03:11:36;;;;;;;2.88;1.38;;;;;;;;;;5112559;28;20039;-52
2023/03/07 03:14:01;;;;;;;3.42;1.58;;;;;;;;;;5113507;28;20027;-52
2023/03/07 03:16:27;;;;;;;2.88;1.83;;;;;;;;;;5113563;28;20430;-52
2023/03/07 03:18:53;;;;;;;2.75;1.90;;;;;;;;;;5095184;28;20054;-51
2023/03/07 03:21:18;;;;;;;1.75;0.98;;;;;;;;;;5113468;28;20026;-52
2023/03/07 03:23:43;;;;;;;3.42;1.80;;;;;;;;;;5112063;28;20055;-52
2023/03/07 03:26:10;;;;;;;1.58;1.08;;;;;;;;;;5111968;28;20063;-52
2023/03/07 03:28:36;;;;;;;4.85;1.55;;;;;;;;;;5111845;28;20048;-52
2023/03/07 03:31:04;;;;;;;2.33;1.48;;;;;;;;;;5094950;28;20027;-52
2023/03/07 03:33:31;;;;;;;3.38;1.25;;;;;;;;;;5111799;28;20031;-51
2023/03/07 03:35:57;;;;;;;2.17;1.70;;;;;;;;;;5113336;28;20031;-52
2023/03/07 03:38:23;;;;;;;4.00;1.80;;;;;;;;;;5111720;28;20063;-52
2023/03/07 03:40:49;;;;;;;1.77;1.17;;;;;;;;;;5111772;28;20438;-52
2023/03/07 03:43:17;;;;;;;3.13;1.27;;;;;;;;;;5111550;28;20462;-51
2023/03/07 03:45:43;;;;;;;2.10;1.13;;;;;;;;;;5112902;28;20043;-52
2023/03/07 03:48:08;;;;;;;1.38;1.25;;;;;;;;;;5111599;28;20031;-51
2023/03/07 03:50:34;;;;;;;4.18;1.80;;;;;;;;;;5111427;28;20023;-51
2023/03/07 03:52:59;;;;;;;1.90;1.20;;;;;;;;;;5111410;28;20058;-51
2023/03/07 03:55:25;;;;;;;1.20;1.08;;;;;;;;;;5111468;28;20024;-51
2023/03/07 03:57:50;;;;;;;1.83;1.35;;;;;;;;;;5112997;28;20069;-51
2023/03/07 04:00:18;;;;;;;1.30;1.00;;;;;;;;;;5111407;28;20035;-51
2023/03/07 04:02:47;;;;;;;1.10;1.00;;;;;;;;;;5111273;28;20019;-51
2023/03/07 04:05:15;;;;;;;1.33;1.15;;;;;;;;;;5111215;28;20382;-52
2023/03/07 04:07:41;;;;;;;1.65;1.27;;;;;;;;;;5110695;28;20023;-52
2023/03/07 04:10:07;;;;;;;3.13;1.45;;;;;;;;;;5110951;28;20115;-52
2023/03/07 04:12:33;;;;;;;1.25;1.15;;;;;;;;;;5111082;28;20027;-51
2023/03/07 04:14:58;;;;;;;4.90;2.20;;;;;;;;;;5112371;28;20027;-52
2023/03/07 04:17:24;;;;;;;2.67;1.50;;;;;;;;;;5111147;28;20486;-52
2023/03/07 04:19:49;;;;;;;3.58;1.63;;;;;;;;;;5111102;28;20053;-52
2023/03/07 04:22:14;;;;;;;3.60;1.42;;;;;;;;;;5112149;28;20023;-52
2023/03/07 04:24:40;;;;;;;3.85;2.42;;;;;;;;;;5111048;28;20024;-51
2023/03/07 04:27:06;;;;;;;3.15;1.80;;;;;;;;;;5110839;28;20444;-52
2023/03/07 04:29:33;;;;;;;2.28;1.92;;;;;;;;;;5110727;28;20054;-51
2023/03/07 04:32:04;;;;;;;3.17;1.80;;;;;;;;;;5110691;28;20036;-52
2023/03/07 04:34:29;;;;;;;1.77;1.67;;;;;;;;;;5112162;28;20027;-52
2023/03/07 04:36:54;;;;;;;3.10;1.70;;;;;;;;;;5110778;28;20019;-52
2023/03/07 04:39:20;;;;;;;1.77;1.60;;;;;;;;;;5112141;28;20027;-51
2023/03/07 04:41:45;;;;;;;1.40;1.00;;;;;;;;;;5110740;28;20068;-51
2023/03/07 04:44:19;;;;;;;3.97;1.95;;;;;;;;;;5110618;28;20073;-52
2023/03/07 04:46:45;;;;;;;3.47;1.38;;;;;;;;;;5112237;28;20076;-51
2023/03/07 04:49:10;;;;;;;3.20;1.75;;;;;;;;;;5110616;28;20474;-51
2023/03/07 04:51:36;;;;;;;1.38;1.02;;;;;;;;;;5110513;28;20035;-52
2023/03/07 04:54:01;;;;;;;1.92;1.38;;;;;;;;;;5110504;28;20393;-52
2023/03/07 04:56:26;;;;;;;2.47;1.45;;;;;;;;;;5111932;28;20020;-52
2023/03/07 04:58:53;;;;;;;1.85;1.40;;;;;;;;;;5110566;28;20068;-51
2023/03/07 05:01:18;;;;;;;2.80;1.90;;;;;;;;;;5111800;28;20023;-52
2023/03/07 05:03:44;;;;;;;1.85;1.30;;;;;;;;;;5110537;28;20094;-52
2023/03/07 05:06:12;;;;;;;2.83;1.58;;;;;;;;;;5093636;28;20064;-52
2023/03/07 05:08:38;;;;;;;1.65;1.55;;;;;;;;;;5110490;28;20019;-52
2023/03/07 05:11:04;;;;;;;2.67;1.58;;;;;;;;;;5111827;28;20486;-52
2023/03/07 05:13:30;;;;;;;1.73;1.23;;;;;;;;;;5110482;28;20022;-52
2023/03/07 05:15:57;;;;;;;3.35;1.42;;;;;;;;;;5111640;28;20098;-52
2023/03/07 05:18:23;;;;;;;1.63;1.48;;;;;;;;;;5110616;28;20473;-52
2023/03/07 05:20:50;;;;;;;2.85;1.73;;;;;;;;;;5113921;28;20385;-52
2023/03/07 05:23:16;;;;;;;2.00;1.40;;;;;;;;;;5114340;28;20016;-52
2023/03/07 05:25:42;;;;;;;2.78;1.63;;;;;;;;;;5114337;28;20115;-52
2023/03/07 05:28:08;;;;;;;4.03;2.38;;;;;;;;;;5114165;28;20118;-52
2023/03/07 05:30:33;;;;;;;2.70;1.83;;;;;;;;;;5115490;28;20079;-52
2023/03/07 05:32:59;;;;;;;1.63;1.20;;;;;;;;;;5114209;28;20031;-52
2023/03/07 05:35:25;;;;;;;4.45;2.80;;;;;;;;;;5115476;28;20032;-52
2023/03/07 05:37:52;;;;;;;5.03;2.00;;;;;;;;;;5114172;28;20428;-52
2023/03/07 05:40:19;;;;;;;3.22;1.98;;;;;;;;;;5114051;28;20143;-52
2023/03/07 05:42:46;;;;;;;2.15;1.60;;;;;;;;;;5114036;28;20051;-52
2023/03/07 05:45:12;;;;;;;2.67;2.10;;;;;;;;;;5113946;28;20035;-52
2023/03/07 05:47:38;;;;;;;2.42;2.10;;;;;;;;;;5113911;28;20023;-51
2023/03/07 05:50:07;;;;;;;2.45;1.40;;;;;;;;;;5113875;28;20057;-52
2023/03/07 05:52:32;;;;;;;3.47;2.25;;;;;;;;;;5113769;28;20040;-52
2023/03/07 05:54:57;;;;;;;1.45;1.27;;;;;;;;;;5115022;28;20027;-52
2023/03/07 05:57:23;;;;;;;3.38;1.67;;;;;;;;;;5113835;28;20115;-51
2023/03/07 05:59:49;;;;;;;4.28;1.75;;;;;;;;;;5113783;28;20028;-52
2023/03/07 06:02:14;;;;;;;4.10;1.77;;;;;;;;;;5113553;28;20020;-52
2023/03/07 06:04:40;;;;;;;4.03;2.00;;;;;;;;;;5114981;28;20031;-52
2023/03/07 06:07:05;;;;;;;2.08;1.40;;;;;;;;;;5114866;28;20023;-51
2023/03/07 06:09:31;;;;;;;2.03;1.42;;;;;;;;;;5114919;28;20046;-51
2023/03/07 06:11:57;;;;;;;2.22;1.70;;;;;;;;;;5113248;28;20392;-51
2023/03/07 06:14:23;;;;;;;3.97;1.80;;;;;;;;;;5096474;28;20027;-51
2023/03/07 06:16:49;;;;;;;2.30;1.73;;;;;;;;;;5113487;28;20020;-51
2023/03/07 06:19:14;;;;;;;3.92;2.28;;;;;;;;;;5113250;28;20028;-51
2023/03/07 06:21:41;;;;;;;6.75;2.05;;;;;;;;;;5113385;28;20020;-52
2023/03/07 06:24:07;;;;;;;2.00;1.65;;;;;;;;;;5113173;28;20031;-51
2023/03/07 06:26:32;;;;;;;1.42;1.33;;;;;;;;;;5114588;27;20011;-52
2023/03/07 06:28:58;;;;;;;2.83;1.85;;;;;;;;;;5112942;28;20090;-52
2023/03/07 06:31:25;;;;;;;1.77;1.58;;;;;;;;;;5113481;28;20035;-51
2023/03/07 06:33:52;;;;;;;2.92;1.48;;;;;;;;;;5113050;28;20062;-51
2023/03/07 06:36:20;;;;;;;2.13;1.55;;;;;;;;;;5112946;28;20019;-52
2023/03/07 06:38:50;;;;;;;5.22;3.00;;;;;;;;;;5112983;28;20493;-51
2023/03/07 06:41:16;;;;;;;1.85;1.58;;;;;;;;;;5113145;28;20027;-52
2023/03/07 06:43:43;;;;;;;2.22;1.65;;;;;;;;;;5114153;28;20016;-52
2023/03/07 06:46:09;;;;;;;5.40;3.10;;;;;;;;;;5112817;28;20393;-52
2023/03/07 06:48:38;;;;;;;1.88;1.60;;;;;;;;;;5112819;28;20027;-52
2023/03/07 06:51:07;;;;;;;3.08;2.13;;;;;;;;;;5112655;28;20044;-52
2023/03/07 06:53:33;;;;;;;4.82;2.42;;;;;;;;;;5112625;28;20034;-51
2023/03/07 06:56:00;;;;;;;4.25;2.20;;;;;;;;;;5112560;28;20030;-52
2023/03/07 06:58:25;;;;;;;3.72;2.33;;;;;;;;;;5113883;28;20016;-52
2023/03/07 07:00:51;;;;;;;3.63;1.60;;;;;;;;;;5112603;28;20127;-52
2023/03/07 07:03:18;;;;;;;3.92;2.03;;;;;;;;;;5112387;28;20019;-52
2023/03/07 07:05:43;;;;;;;3.47;2.03;;;;;;;;;;5113848;28;20023;-51
2023/03/07 07:08:09;;;;;;;2.10;1.52;;;;;;;;;;5113707;28;20098;-52
2023/03/07 07:10:34;;;;;;;1.83;1.60;;;;;;;;;;5112292;28;20543;-52
2023/03/07 07:13:00;;;;;;;4.00;2.67;;;;;;;;;;5112173;28;20486;-51
2023/03/07 07:15:26;;;;;;;2.03;1.67;;;;;;;;;;5112320;28;20031;-51
2023/03/07 07:17:52;;;;;;;3.75;1.25;;;;;;;;;;5112235;28;20034;-51
2023/03/07 07:20:18;;;;;;;2.33;1.92;;;;;;;;;;5095137;28;20030;-52
2023/03/07 07:22:43;;;;;;;5.18;1.35;;;;;;;;;;5112093;28;20131;-52
2023/03/07 07:25:09;;;;;;;3.28;1.48;;;;;;;;;;5111995;28;20134;-52
2023/03/07 07:27:35;;;;;;;2.17;1.27;;;;;;;;;;5112053;28;20432;-52
2023/03/07 07:30:02;;;;;;;3.30;1.83;;;;;;;;;;5111664;28;20071;-52
2023/03/07 07:32:28;;;;;;;3.88;1.80;;;;;;;;;;5111813;28;20067;-52
2023/03/07 07:34:53;;;;;;;2.95;1.92;;;;;;;;;;5113230;28;20062;-52
2023/03/07 07:37:19;;;;;;;3.17;1.55;;;;;;;;;;5111766;28;20441;-51
2023/03/07 07:39:45;;;;;;;2.05;1.65;;;;;;;;;;5111785;28;20036;-52
2023/03/07 07:42:11;;;;;;;6.18;1.92;;;;;;;;;;5111516;28;20032;-52
2023/03/07 07:44:48;;;;;;;2.92;2.20;;;;;;;;;;5111670;28;20035;-52
2023/03/07 07:47:14;;;;;;;2.38;1.25;;;;;;;;;;5111565;28;20023;-52
2023/03/07 07:49:39;;;;;;;3.75;1.58;;;;;;;;;;5111636;28;20019;-52
2023/03/07 07:52:05;;;;;;;1.55;1.45;;;;;;;;;;5111384;28;20062;-52
2023/03/07 07:54:31;;;;;;;4.32;1.77;;;;;;;;;;5111579;28;20015;-52
2023/03/07 07:56:57;;;;;;;1.58;1.23;;;;;;;;;;5111483;28;20027;-52
2023/03/07 07:59:23;;;;;;;3.13;2.08;;;;;;;;;;5111459;28;20030;-52
2023/03/07 08:01:50;;;;;;;3.70;2.65;;;;;;;;;;5111581;28;20063;-52
2023/03/07 08:04:15;;;;;;;13.57;3.15;;;;;;;;;;5111305;28;20047;-52
2023/03/07 08:06:43;;;;;;;6.38;2.38;;;;;;;;;;5112669;28;20504;-52
2023/03/07 08:09:08;;;;;;;3.80;2.08;;;;;;;;;;5112489;28;20016;-52
2023/03/07 08:11:33;;;;;;;4.93;2.67;;;;;;;;;;5112492;28;20047;-52
2023/03/07 08:13:59;;;;;;;3.22;2.20;;;;;;;;;;5111188;28;20020;-52
2023/03/07 08:16:24;;;;;;;7.57;2.25;;;;;;;;;;5112721;28;20080;-52
2023/03/07 08:18:51;;;;;;;3.33;1.38;;;;;;;;;;5112413;28;20034;-52
2023/03/07 08:21:16;;;;;;;3.85;2.03;;;;;;;;;;5112501;28;20032;-52
2023/03/07 08:23:42;;;;;;;8.10;2.83;;;;;;;;;;5110989;28;20030;-52
2023/03/07 08:26:08;;;;;;;13.23;3.35;;;;;;;;;;5112477;28;20111;-52
2023/03/07 08:28:34;;;;;;;4.45;2.67;;;;;;;;;;5112315;28;20035;-52
2023/03/07 08:31:07;;;;;;;5.35;2.10;;;;;;;;;;5112076;28;20044;-52
2023/03/07 08:33:32;;;;;;;3.58;2.00;;;;;;;;;;5112189;28;20043;-52
2023/03/07 08:35:58;;;;;;;4.15;2.33;;;;;;;;;;5112168;28;20026;-52
2023/03/07 08:38:23;;;;;;;5.25;2.22;;;;;;;;;;5112334;28;20102;-52
2023/03/07 08:40:48;;;;;;;4.32;1.88;;;;;;;;;;5112138;28;20020;-52
2023/03/07 08:43:14;;;;;;;4.03;1.38;;;;;;;;;;5111971;28;20039;-52
2023/03/07 08:45:39;;;;;;;3.63;1.25;;;;;;;;;;5112045;28;20031;-52
2023/03/07 08:48:05;;;;;;;3.90;2.30;;;;;;;;;;5112171;28;20049;-52
2023/03/07 08:50:30;;;;;;;5.65;2.13;;;;;;;;;;5111943;28;20476;-52
2023/03/07 08:52:56;;;;;;;5.50;2.15;;;;;;;;;;5111898;28;20418;-52
2023/03/07 08:55:22;;;;;;;2.90;2.08;;;;;;;;;;5111331;28;20112;-52
2023/03/07 08:57:47;;;;;;;3.28;2.67;;;;;;;;;;5112077;28;20035;-52
2023/03/07 09:00:13;;;;;;;3.92;1.83;;;;;;;;;;5112103;28;20482;-52
2023/03/07 09:02:39;;;;;;;3.35;1.80;;;;;;;;;;5110643;28;20500;-52
2023/03/07 09:05:04;;;;;;;3.42;1.50;;;;;;;;;;5112012;28;20099;-52
2023/03/07 09:07:29;;;;;;;2.83;1.70;;;;;;;;;;5110641;28;20547;-52
2023/03/07 09:09:55;;;;;;;7.88;2.75;;;;;;;;;;5111728;28;20431;-52
2023/03/07 09:12:21;;;;;;;6.43;2.80;;;;;;;;;;5111834;28;20050;-52
2023/03/07 09:14:46;;;;;;;4.40;2.00;;;;;;;;;;5111770;28;20026;-52
2023/03/07 09:17:12;;;;;;;4.90;1.98;;;;;;;;;;5111848;28;20110;-52
2023/03/07 09:19:37;;;;;;;2.92;2.08;;;;;;;;;;5111714;28;20016;-52
2023/03/07 09:22:03;;;;;;;3.90;2.15;;;;;;;;;;5111782;28;20030;-52
2023/03/07 09:24:28;;;;;;;2.05;1.52;;;;;;;;;;5111605;28;20488;-52
2023/03/07 09:26:54;;;;;;;1.98;1.20;;;;;;;;;;5111882;28;20423;-52
2023/03/07 09:29:19;;;;;;;2.78;1.20;;;;;;;;;;5111427;28;20046;-52
2023/03/07 09:31:45;;;;;;;3.05;1.38;;;;;;;;;;5111559;28;20038;-52
2023/03/07 09:34:11;;;;;;;3.97;1.90;;;;;;;;;;5111523;28;20027;-52
2023/03/07 09:36:36;;;;;;;3.05;2.03;;;;;;;;;;5111598;28;20072;-52
2023/03/07 09:39:03;;;;;;;6.13;2.03;;;;;;;;;;5111779;28;20019;-52
2023/03/07 09:41:47;;;;;;;3.13;1.67;;;;;;;;;;5110128;28;20024;-52
2023/03/07 09:44:12;;;;;;;1.55;1.10;;;;;;;;;;5111438;28;20031;-52
2023/03/07 09:47:09;;;;;;;1.33;1.23;;;;;;;;;;5111784;28;20035;-52
2023/03/07 09:49:39;;;;;;;3.28;2.38;;;;;;;;;;5111475;28;20063;-52
2023/03/07 09:52:11;;;;;;;3.47;2.58;;;;;;;;;;5111467;28;20066;-52
2023/03/07 09:54:39;;;;;;;2.63;2.07;;;;;;;;;;5111974;28;20031;-52
2023/03/07 09:57:06;;;;;;;5.18;2.38;;;;;;;;;;5111586;28;20041;-52
2023/03/07 09:59:37;;;;;;;2.50;1.98;;;;;;;;;;5111658;28;20411;-52
2023/03/07 10:02:14;;;;;;;3.67;2.00;;;;;;;;;;5111142;28;20539;-52
2023/03/07 10:04:42;;;;;;;3.15;2.20;;;;;;;;;;5111534;28;20027;-52
2023/03/07 10:07:08;;;;;;;3.25;2.42;;;;;;;;;;5113005;28;20103;-52
2023/03/07 10:09:34;;;;;;;4.90;3.13;;;;;;;;;;5114947;27;20106;-52
2023/03/07 10:12:17;;;;;;;2.83;1.90;;;;;;;;;;5114744;28;20107;-52
2023/03/07 10:14:42;;;;;;;;;;;;;;;;;;5114031;28;20104;-52
2023/03/07 10:17:38;;;;;;;2.72;1.58;;;;;;;;;;5114746;28;20180;-52
2023/03/07 10:20:10;;;;;;;3.05;2.00;;;;;;;;;;5114589;27;20381;-52
2023/03/07 10:22:44;;;;;;;3.72;1.73;;;;;;;;;;5114581;28;20055;-52
2023/03/07 10:25:12;;;;;;;7.50;2.28;;;;;;;;;;5114540;28;20024;-52
2023/03/07 10:27:38;;;;;;;4.55;2.33;;;;;;;;;;5114658;28;20019;-52
2023/03/07 10:30:10;;;;;;;5.28;2.08;;;;;;;;;;5114238;28;20071;-52
2023/03/07 10:32:45;;;;;;;3.42;2.13;;;;;;;;;;5114279;28;20075;-52
2023/03/07 10:35:10;;;;;;;3.92;2.42;;;;;;;;;;5114607;28;20032;-52
2023/03/07 10:37:42;;;;;;;1.85;1.67;;;;;;;;;;5114369;28;20389;-52
2023/03/07 10:40:15;;;;;;;5.88;2.75;;;;;;;;;;5114357;28;20031;-52
2023/03/07 10:42:41;;;;;;;4.32;2.00;;;;;;;;;;5114276;28;20473;-52
2023/03/07 10:45:10;;;;;;;3.13;1.95;;;;;;;;;;5114055;28;20019;-52
2023/03/07 10:47:36;;;;;;;5.18;2.60;;;;;;;;;;5114384;28;20427;-52
2023/03/07 10:50:22;;;;;;;9.27;1.88;;;;;;;;;;5113946;28;20028;-52
2023/03/07 10:52:52;;;;;;;5.22;1.42;;;;;;;;;;5113882;28;20478;-52
2023/03/07 10:55:36;;;;;;;5.93;2.03;;;;;;;;;;5114212;28;20024;-52
2023/03/07 10:58:28;;;;;;;4.53;2.25;;;;;;;;;;5113805;28;20035;-52
2023/03/07 11:00:58;;;;;;;2.42;1.85;;;;;;;;;;5109923;28;20571;-52
2023/03/07 11:03:25;;;;;;;3.00;2.60;;;;;;;;;;5113753;28;20059;-52
2023/03/07 11:05:51;;;;;;;3.08;1.88;;;;;;;;;;5113880;27;20032;-52
2023/03/07 11:08:27;;;;;;;3.60;2.35;;;;;;;;;;5113969;28;20026;-52
2023/03/07 11:10:53;;;;;;;3.13;2.15;;;;;;;;;;5112409;28;20028;-52
2023/03/07 11:13:19;;;;;;;2.60;2.10;;;;;;;;;;5113841;28;20023;-52
2023/03/07 11:15:45;;;;;;;4.90;2.80;;;;;;;;;;5113945;28;20051;-52
2023/03/07 11:18:25;;;;;;;3.30;2.15;;;;;;;;;;5113326;28;20066;-52
2023/03/07 11:20:51;;;;;;;3.58;2.65;;;;;;;;;;5113589;28;20028;-52
2023/03/07 11:23:17;;;;;;;3.40;2.83;;;;;;;;;;5113558;28;20085;-52
2023/03/07 11:25:42;;;;;;;5.28;4.13;;;;;;;;;;5113392;28;20054;-52
2023/03/07 11:28:37;;;;;;;7.70;3.80;;;;;;;;;;5113634;28;20076;-52
2023/03/07 11:31:08;;;;;;;10.80;3.38;;;;;;;;;;5099942;28;20043;-52
2023/03/07 11:33:37;;;;;;;15.55;5.82;;;;;;;;;;5113194;28;20019;-52
2023/03/07 11:36:02;;;;;;;5.60;2.80;;;;;;;;;;5111886;28;20396;-52
2023/03/07 11:38:46;;;;;;;7.97;3.75;;;;;;;;;;5113441;28;20024;-52
2023/03/07 11:41:17;;;;;;;6.78;4.28;;;;;;;;;;5113318;28;20042;-52
2023/03/07 11:43:58;;;;;;;11.13;5.30;;;;;;;;;;5113241;28;20123;-52
2023/03/07 11:46:33;;;;;;;9.00;4.88;;;;;;;;;;5113192;28;20062;-52
2023/03/07 11:49:10;;;;;;;11.02;5.07;;;;;;;;;;5113030;28;20031;-53
2023/03/07 11:51:54;;;;;;;11.70;5.82;;;;;;;;;;5112767;28;20037;-52
2023/03/07 11:54:19;;;;;;;9.20;5.18;;;;;;;;;;5112840;28;20108;-52
2023/03/07 11:56:53;;;;;;;12.27;5.65;;;;;;;;;;5112818;28;20487;-52
2023/03/07 11:59:18;;;;;;;13.13;5.65;;;;;;;;;;5112989;28;20101;-52
2023/03/07 12:01:46;;;;;;;12.32;7.20;;;;;;;;;;5112653;28;20061;-52
2023/03/07 12:04:12;;;;;;;15.15;7.30;;;;;;;;;;5112648;28;20047;-52
2023/03/07 12:06:49;;;;;;;10.82;6.80;;;;;;;;;;5112664;28;20020;-52
2023/03/07 12:09:17;;;;;;;12.52;6.90;;;;;;;;;;5111074;28;20031;-52
2023/03/07 12:11:43;;;;;;;15.00;7.18;;;;;;;;;;5112751;28;20036;-52
2023/03/07 12:14:27;;;;;;;12.75;8.80;;;;;;;;;;5112399;28;20496;-52
2023/03/07 12:17:01;;;;;;;15.77;8.05;;;;;;;;;;5112526;28;20031;-52
2023/03/07 12:19:42;;;;;;;24.23;8.80;;;;;;;;;;5112392;28;20027;-52
2023/03/07 12:22:08;;;;;;;14.80;7.43;;;;;;;;;;5110958;28;20383;-52
2023/03/07 12:24:43;;;;;;;17.85;9.00;;;;;;;;;;5112614;28;20235;-52
2023/03/07 12:27:12;;;;;;;14.00;9.68;;;;;;;;;;5112171;28;20087;-52
2023/03/07 12:29:40;;;;;;;12.93;8.68;;;;;;;;;;5111382;28;20130;-52
2023/03/07 12:32:08;;;;;;;19.00;8.38;;;;;;;;;;5112016;28;20050;-52
2023/03/07 12:34:40;;;;;;;18.13;8.23;;;;;;;;;;5112498;28;20449;-52
2023/03/07 12:37:29;;;;;;;11.47;6.50;;;;;;;;;;5110909;28;20461;-52
2023/03/07 12:40:00;;;;;;;18.70;9.35;;;;;;;;;;5112164;28;20023;-52
2023/03/07 12:42:41;;;;;;;24.92;11.55;;;;;;;;;;5112168;28;20038;-52
2023/03/07 12:45:06;;;;;;;25.42;10.65;;;;;;;;;;5112254;28;20035;-52
2023/03/07 12:47:55;;;;;;;27.00;12.30;;;;;;;;;;5112034;28;20411;-52
2023/03/07 12:50:36;;;;;;;27.13;11.70;;;;;;;;;;5103640;28;20047;-52
2023/03/07 12:53:11;;;;;;;23.27;10.32;;;;;;;;;;5111851;28;20047;-52
2023/03/07 12:55:49;;;;;;;19.77;10.02;;;;;;;;;;5111987;28;20031;-52
2023/03/07 12:58:26;;;;;;;21.80;10.90;;;;;;;;;;5112084;28;20147;-52
2023/03/07 13:01:08;;;;;;;23.33;12.77;;;;;;;;;;5112133;28;20073;-52
2023/03/07 13:03:52;;;;;;;17.90;7.63;;;;;;;;;;5111917;28;20035;-52
2023/03/07 13:06:19;;;;;;;18.10;10.73;;;;;;;;;;5111724;28;20470;-52
2023/03/07 13:08:46;;;;;;;24.60;10.60;;;;;;;;;;5111785;28;20059;-52
2023/03/07 13:11:16;;;;;;;21.50;12.68;;;;;;;;;;5111810;28;20483;-52
2023/03/07 13:13:42;;;;;;;22.27;12.48;;;;;;;;;;5110467;28;20020;-52
2023/03/07 13:16:09;;;;;;;17.58;12.38;;;;;;;;;;5111871;28;20027;-52
2023/03/07 13:18:35;;;;;;;15.20;8.88;;;;;;;;;;5111995;28;20046;-52
2023/03/07 13:21:20;;;;;;;23.38;13.40;;;;;;;;;;5111775;28;20085;-52
2023/03/07 13:23:46;;;;;;;19.75;9.50;;;;;;;;;;5100662;28;20063;-52
2023/03/07 13:26:12;;;;;;;13.90;6.70;;;;;;;;;;5111549;28;20047;-52
2023/03/07 13:28:44;;;;;;;13.75;8.57;;;;;;;;;;5111488;28;20027;-52
2023/03/07 13:31:10;;;;;;;15.38;9.15;;;;;;;;;;5111533;28;20039;-52
2023/03/07 13:33:35;;;;;;;13.68;5.35;;;;;;;;;;5111606;28;20027;-52
2023/03/07 13:36:01;;;;;;;16.60;7.15;;;;;;;;;;5111687;28;20504;-52
2023/03/07 13:38:40;;;;;;;16.92;7.57;;;;;;;;;;5111522;28;20023;-52
2023/03/07 13:41:07;;;;;;;13.52;8.90;;;;;;;;;;5113292;28;20024;-52
2023/03/07 13:43:56;;;;;;;12.38;7.25;;;;;;;;;;5114208;28;20020;-52
2023/03/07 13:46:30;;;;;;;16.73;6.63;;;;;;;;;;5105852;28;20054;-52
2023/03/07 13:48:55;;;;;;;8.90;6.15;;;;;;;;;;5115626;27;20155;-51
2023/03/07 13:51:20;;;;;;;15.20;6.68;;;;;;;;;;5115432;28;20143;-52
2023/03/07 13:53:50;;;;;;;11.27;5.88;;;;;;;;;;5115225;28;20031;-52
2023/03/07 13:56:23;;;;;;;15.63;5.03;;;;;;;;;;5115374;28;20043;-52
2023/03/07 13:59:01;;;;;;;8.80;5.65;;;;;;;;;;5115187;28;20111;-52
2023/03/07 14:01:36;;;;;;;10.40;4.18;;;;;;;;;;5115211;27;20028;-52
2023/03/07 14:04:20;;;;;;;15.55;6.28;;;;;;;;;;5115053;28;20032;-52
2023/03/07 14:06:45;;;;;;;15.15;6.05;;;;;;;;;;5115014;28;20024;-52
2023/03/07 14:09:16;;;;;;;6.90;5.10;;;;;;;;;;5115105;28;20026;-52
2023/03/07 14:11:53;;;;;;;9.27;4.55;;;;;;;;;;5115066;27;20384;-52
2023/03/07 14:14:38;;;;;;;9.07;5.55;;;;;;;;;;5114696;28;20030;-52
2023/03/07 14:17:16;;;;;;;9.38;5.15;;;;;;;;;;5115023;28;20454;-52
2023/03/07 14:19:41;;;;;;;7.78;4.78;;;;;;;;;;5115042;28;20024;-52
2023/03/07 14:22:27;;;;;;;6.75;5.03;;;;;;;;;;5114531;28;20065;-52
2023/03/07 14:24:53;;;;;;;5.63;4.70;;;;;;;;;;5114939;28;20032;-52
2023/03/07 14:27:18;;;;;;;7.18;4.07;;;;;;;;;;5114554;28;20023;-52
2023/03/07 14:29:48;;;;;;;8.00;3.70;;;;;;;;;;5114337;28;20055;-52
2023/03/07 14:32:28;;;;;;;4.30;3.13;;;;;;;;;;5114199;28;20035;-52
2023/03/07 14:34:54;;;;;;;5.65;3.53;;;;;;;;;;5114729;28;20035;-52
2023/03/07 14:37:27;;;;;;;5.63;3.38;;;;;;;;;;5114641;28;20023;-52
2023/03/07 14:39:58;;;;;;;4.70;3.70;;;;;;;;;;5114409;28;20096;-52
2023/03/07 14:42:32;;;;;;;9.20;3.75;;;;;;;;;;5114244;28;20024;-52
2023/03/07 14:44:58;;;;;;;5.38;3.38;;;;;;;;;;5114282;28;20062;-52
2023/03/07 14:47:24;;;;;;;5.47;3.13;;;;;;;;;;5114427;28;20015;-52